createdAt,value
2018-08-12T00:09:32.559Z,14.80
2018-08-12T00:14:08.321Z,14.20
2018-08-12T00:32:26.153Z,13.70
2018-08-12T00:37:06.335Z,13.80
2018-08-12T00:41:25.676Z,13.60
2018-08-12T00:55:02.477Z,13.50
2018-08-12T01:09:43.462Z,14.40
2018-08-12T01:15:10.761Z,13.60
2018-08-12T01:34:52.378Z,13.70
2018-08-12T01:43:55.967Z,15.80
2018-08-12T02:28:11.557Z,13.60
2018-08-12T03:19:02.762Z,13.80
2018-08-12T03:23:25.114Z,13.40
2018-08-12T03:27:29.688Z,13.50
2018-08-12T03:31:33.372Z,13.80
2018-08-12T03:35:37.149Z,13.60
2018-08-12T03:39:54.213Z,13.10
2018-08-12T03:44:16.408Z,13.10
2018-08-12T03:48:21.858Z,13.20
2018-08-12T03:52:35.559Z,13.70
2018-08-12T03:56:50.420Z,13.40
2018-08-12T04:01:01.157Z,13.50
2018-08-12T04:05:04.507Z,13.20
2018-08-12T04:09:11.480Z,12.80
2018-08-12T04:13:34.551Z,12.40
2018-08-12T04:17:40.217Z,12.70
2018-08-12T04:47:44.454Z,14.10
2018-08-12T04:52:00.190Z,13.80
2018-08-12T05:04:56.014Z,14.40
2018-08-12T05:09:19.928Z,14.00
2018-08-12T05:13:24.995Z,13.80
2018-08-12T05:17:29.158Z,13.90
2018-08-12T05:25:58.069Z,13.80
2018-08-12T05:30:13.655Z,14.10
2018-08-12T05:34:18.018Z,14.10
2018-08-12T05:38:25.828Z,14.40
2018-08-12T05:42:34.647Z,13.80
2018-08-12T05:46:44.515Z,14.40
2018-08-12T05:50:58.241Z,14.80
2018-08-12T05:55:17.943Z,14.70
2018-08-12T05:59:22.403Z,14.40
2018-08-12T06:18:31.647Z,14.80
2018-08-12T06:23:15.680Z,15.10
2018-08-12T06:58:01.838Z,17.20
2018-08-12T08:42:38.696Z,19.30
2018-08-12T08:46:48.106Z,24.10
2018-08-12T08:50:51.108Z,24.10
2018-08-12T08:54:55.253Z,24.50
2018-08-12T08:58:57.958Z,24.50
2018-08-12T09:03:06.237Z,24.70
2018-08-12T09:07:09.147Z,25.50
2018-08-12T09:11:11.896Z,25.40
2018-08-12T09:15:16.340Z,25.90
2018-08-12T09:19:18.980Z,25.90
2018-08-12T09:23:21.597Z,25.60
2018-08-12T09:27:24.306Z,26.20
2018-08-12T09:31:27.048Z,26.40
2018-08-12T09:35:29.784Z,26.30
2018-08-12T09:39:32.379Z,26.30
2018-08-12T09:43:35.247Z,25.60
2018-08-12T09:47:38.366Z,26.30
2018-08-12T09:51:41.063Z,26.30
2018-08-12T09:55:43.630Z,26.00
2018-08-12T09:59:46.219Z,26.00
2018-08-12T10:03:50.114Z,26.90
2018-08-12T10:07:53.353Z,27.40
2018-08-12T10:11:56.129Z,27.50
2018-08-12T10:15:58.804Z,27.60
2018-08-12T10:20:01.514Z,27.80
2018-08-12T10:24:04.172Z,27.10
2018-08-12T10:28:06.890Z,27.80
2018-08-12T10:32:09.495Z,28.00
2018-08-12T10:36:12.157Z,28.40
2018-08-12T10:40:16.753Z,28.40
2018-08-12T10:44:19.394Z,28.40
2018-08-12T10:48:21.973Z,27.70
2018-08-12T10:52:24.701Z,27.90
2018-08-12T10:56:27.478Z,27.00
2018-08-12T11:00:32.488Z,27.60
2018-08-12T11:04:35.117Z,28.00
2018-08-12T11:08:37.780Z,29.10
2018-08-12T11:12:41.152Z,29.30
2018-08-12T11:16:43.788Z,28.20
2018-08-12T11:20:46.358Z,28.50
2018-08-12T11:24:48.918Z,27.90
2018-08-12T11:28:51.565Z,28.70
2018-08-12T11:32:54.310Z,29.00
2018-08-12T11:36:57.164Z,29.20
2018-08-12T11:40:59.840Z,29.10
2018-08-12T11:45:02.476Z,28.80
2018-08-12T11:49:05.434Z,28.30
2018-08-12T11:53:08.107Z,28.40
2018-08-12T11:57:10.691Z,28.30
2018-08-12T12:01:13.312Z,28.00
2018-08-12T12:05:16.027Z,29.00
2018-08-12T12:09:18.685Z,28.90
2018-08-12T12:13:21.315Z,28.80
2018-08-12T12:17:23.935Z,28.60
2018-08-12T12:21:26.521Z,28.70
2018-08-12T12:25:29.207Z,28.60
2018-08-12T12:29:31.862Z,29.10
2018-08-12T12:33:34.509Z,29.20
2018-08-12T12:37:37.348Z,29.00
2018-08-12T12:41:40.401Z,29.50
2018-08-12T12:45:43.062Z,29.40
2018-08-12T12:49:45.719Z,28.50
2018-08-12T12:53:48.467Z,29.10
2018-08-12T12:57:51.173Z,29.30
2018-08-12T13:01:53.828Z,28.40
2018-08-12T13:05:56.374Z,28.80
2018-08-12T13:09:59.147Z,28.60
2018-08-12T13:14:01.755Z,28.90
2018-08-12T13:18:04.578Z,29.20
2018-08-12T13:22:07.288Z,29.10
2018-08-12T13:26:09.876Z,29.60
2018-08-12T13:30:13.450Z,29.40
2018-08-12T13:34:16.070Z,29.40
2018-08-12T13:38:18.657Z,29.30
2018-08-12T13:42:21.596Z,29.50
2018-08-12T13:46:24.242Z,29.50
2018-08-12T13:50:26.925Z,29.20
2018-08-12T13:54:29.577Z,29.70
2018-08-12T13:58:32.219Z,29.10
2018-08-12T14:02:34.782Z,29.10
2018-08-12T14:06:37.463Z,29.10
2018-08-12T14:10:40.096Z,29.20
2018-08-12T14:14:42.779Z,28.90
2018-08-12T14:18:45.360Z,29.30
2018-08-12T14:22:48.011Z,29.50
2018-08-12T14:26:50.692Z,29.30
2018-08-12T14:30:53.306Z,28.80
2018-08-12T14:34:56.106Z,29.00
2018-08-12T14:38:58.650Z,29.20
2018-08-12T14:43:01.324Z,28.90
2018-08-12T14:47:04.017Z,28.80
2018-08-12T14:51:06.765Z,28.80
2018-08-12T14:55:10.961Z,28.50
2018-08-12T14:59:13.534Z,28.20
2018-08-12T15:03:16.154Z,28.50
2018-08-12T15:07:18.776Z,28.40
2018-08-12T15:11:21.464Z,28.20
2018-08-12T15:15:24.094Z,28.20
2018-08-12T15:19:26.674Z,28.40
2018-08-12T15:23:29.246Z,28.40
2018-08-12T15:27:31.858Z,28.40
2018-08-12T15:31:34.454Z,28.30
2018-08-12T15:35:37.092Z,28.00
2018-08-12T15:39:39.657Z,27.80
2018-08-12T15:43:42.562Z,28.00
2018-08-12T15:47:45.797Z,28.10
2018-08-12T15:51:48.382Z,28.10
2018-08-12T15:55:51.023Z,27.90
2018-08-12T15:59:53.635Z,27.60
2018-08-12T16:03:56.251Z,27.40
2018-08-12T16:07:59.109Z,27.50
2018-08-12T16:12:01.722Z,27.50
2018-08-12T16:16:04.459Z,27.50
2018-08-12T16:20:07.495Z,27.60
2018-08-12T16:24:10.147Z,27.50
2018-08-12T16:28:12.871Z,27.30
2018-08-12T16:32:15.411Z,27.30
2018-08-12T16:36:18.041Z,27.30
2018-08-12T16:40:21.224Z,27.30
2018-08-12T16:44:23.821Z,27.30
2018-08-12T16:48:26.536Z,27.20
2018-08-12T16:52:29.216Z,27.00
2018-08-12T16:56:31.872Z,26.90
2018-08-12T17:00:34.469Z,26.80
2018-08-12T17:04:37.104Z,26.90
2018-08-12T17:08:39.742Z,26.80
2018-08-12T17:12:42.414Z,26.80
2018-08-12T17:16:45.199Z,26.80
2018-08-12T17:20:47.906Z,26.80
2018-08-12T17:24:50.553Z,26.80
2018-08-12T17:28:53.267Z,26.80
2018-08-12T17:32:55.846Z,26.70
2018-08-12T17:36:58.588Z,26.60
2018-08-12T17:41:04.137Z,26.50
2018-08-12T17:45:08.563Z,26.50
2018-08-12T17:49:12.414Z,26.50
2018-08-12T17:53:21.030Z,26.50
2018-08-12T17:57:23.715Z,26.50
2018-08-12T18:01:26.408Z,26.40
2018-08-12T18:05:29.009Z,26.40
2018-08-12T18:09:34.030Z,26.30
2018-08-12T18:13:38.426Z,26.20
2018-08-12T18:17:42.318Z,26.10
2018-08-12T18:21:45.304Z,26.00
2018-08-12T18:25:48.298Z,25.90
2018-08-12T18:29:51.368Z,25.80
2018-08-12T18:33:54.444Z,25.60
2018-08-12T18:37:57.556Z,25.60
2018-08-12T18:42:00.622Z,25.50
2018-08-12T18:46:03.951Z,25.20
2018-08-12T18:50:09.384Z,25.10
2018-08-12T18:54:12.033Z,24.80
2018-08-12T18:58:14.638Z,24.60
2018-08-12T19:02:17.255Z,24.40
2018-08-12T19:06:19.915Z,24.10
2018-08-12T19:10:22.641Z,23.90
2018-08-12T19:14:25.245Z,23.90
2018-08-12T19:18:27.793Z,23.80
2018-08-12T19:22:30.347Z,23.80
2018-08-12T19:26:32.971Z,23.70
2018-08-12T19:30:35.649Z,23.60
2018-08-12T19:34:38.313Z,23.50
2018-08-12T19:38:41.036Z,23.20
2018-08-12T19:42:43.630Z,23.10
2018-08-12T19:46:46.267Z,23.00
2018-08-12T19:50:48.833Z,22.90
2018-08-12T19:54:51.461Z,22.60
2018-08-12T19:58:54.094Z,22.50
2018-08-12T20:02:56.724Z,22.40
2018-08-12T20:06:59.403Z,22.30
2018-08-12T20:11:08.579Z,22.20
2018-08-12T20:15:11.659Z,22.00
2018-08-12T20:19:14.277Z,22.00
2018-08-12T20:23:16.859Z,21.80
2018-08-12T20:27:19.461Z,21.70
2018-08-12T20:31:22.070Z,21.60
2018-08-12T20:35:24.657Z,21.40
2018-08-12T20:39:27.365Z,21.30
2018-08-12T20:43:29.968Z,21.20
2018-08-12T20:47:32.567Z,21.20
2018-08-12T20:51:35.170Z,21.10
2018-08-12T20:55:37.800Z,21.00
2018-08-12T20:59:40.345Z,20.90
2018-08-12T21:03:42.952Z,20.80
2018-08-12T21:07:45.508Z,20.70
2018-08-12T21:11:48.095Z,20.60
2018-08-12T21:15:50.675Z,20.70
2018-08-12T21:19:53.304Z,20.50
2018-08-12T21:23:55.925Z,20.40
2018-08-12T21:27:58.618Z,20.20
2018-08-12T21:32:01.266Z,20.20
2018-08-12T21:36:03.892Z,20.20
2018-08-12T21:40:06.541Z,20.20
2018-08-12T21:44:09.171Z,20.20
2018-08-12T21:48:11.921Z,20.10
2018-08-12T21:52:14.519Z,20.10
2018-08-12T21:56:17.206Z,20.00
2018-08-12T22:00:19.829Z,20.00
2018-08-12T22:04:23.385Z,19.80
2018-08-12T22:08:25.978Z,19.60
2018-08-12T22:12:28.639Z,19.50
2018-08-12T22:16:31.209Z,19.40
2018-08-12T22:20:33.774Z,19.20
2018-08-12T22:24:36.325Z,19.10
2018-08-12T22:28:38.935Z,19.20
2018-08-12T22:32:41.533Z,19.00
2018-08-12T22:36:44.075Z,18.90
2018-08-12T22:40:46.648Z,19.10
2018-08-12T22:44:49.259Z,19.10
2018-08-12T22:48:51.964Z,19.30
2018-08-12T22:52:54.538Z,19.30
2018-08-12T22:56:57.195Z,19.40
2018-08-12T23:00:59.884Z,19.40
2018-08-12T23:05:02.526Z,19.20
2018-08-12T23:09:07.108Z,19.20
2018-08-12T23:13:09.697Z,19.20
2018-08-12T23:17:12.401Z,19.10
2018-08-12T23:21:16.365Z,19.20
2018-08-12T23:25:18.977Z,19.20
2018-08-12T23:29:21.618Z,19.10
2018-08-12T23:33:24.214Z,19.10
2018-08-12T23:37:26.787Z,19.00
2018-08-12T23:41:29.320Z,19.30
2018-08-12T23:45:31.889Z,19.20
2018-08-12T23:49:34.461Z,19.00
2018-08-12T23:53:37.079Z,19.00
2018-08-12T23:57:39.674Z,18.90
